Time;durP1;ratioP1;P1;durP2;ratioP2;P2;SDS_P1;SDS_P2;PMS_P1;PMS_P2;Temp;Humidity;BMP_temperature;BMP_pressure;BME280_temperature;BME280_humidity;BME280_pressure;Samples;Min_cycle;Max_cycle;Signal;HPM_P1;HPM_P2
2023/03/01 00:00:00;;;;;;;12.03;8.80;;;;;;;-2.77;100.00;102160.84;687706;28;1525;-63
2023/03/01 00:00:20;;;;;;;12.27;8.90;;;;;;;-2.76;100.00;102157.53;690292;28;1389;-63
2023/03/01 00:00:41;;;;;;;13.07;9.35;;;;;;;-2.76;100.00;102155.84;689478;28;4399;-63
2023/03/01 00:01:07;;;;;;;12.10;9.10;;;;;;;-2.74;100.00;102161.09;686548;28;1484;-63
2023/03/01 00:01:30;;;;;;;11.20;8.60;;;;;;;-2.76;100.00;102153.28;686389;28;1342;-63
2023/03/01 00:01:50;;;;;;;12.43;9.23;;;;;;;-2.78;100.00;102159.97;687039;28;1168;-63
2023/03/01 00:02:11;;;;;;;11.70;9.07;;;;;;;-2.80;100.00;102166.63;687239;28;1270;-63
2023/03/01 00:02:31;;;;;;;11.47;8.53;;;;;;;-2.80;100.00;102158.97;687814;28;1445;-63
2023/03/01 00:02:51;;;;;;;12.23;8.63;;;;;;;-2.83;100.00;102153.63;687996;28;1362;-63
2023/03/01 00:03:12;;;;;;;11.87;9.07;;;;;;;-2.84;100.00;102162.06;687412;28;1153;-63
2023/03/01 00:03:33;;;;;;;12.25;9.25;;;;;;;-2.85;100.00;102162.88;687937;28;1204;-63
2023/03/01 00:03:55;;;;;;;13.07;9.45;;;;;;;-2.86;100.00;102161.09;687351;28;4486;-63
2023/03/01 00:04:15;;;;;;;11.63;9.02;;;;;;;-2.89;100.00;102157.41;687809;28;1382;-63
2023/03/01 00:04:36;;;;;;;11.50;8.80;;;;;;;-2.89;100.00;102170.19;687953;28;1401;-63
2023/03/01 00:04:56;;;;;;;12.37;9.20;;;;;;;-2.95;100.00;102163.88;687564;28;1476;-63
2023/03/01 00:05:16;;;;;;;11.38;8.70;;;;;;;-2.96;100.00;102158.63;687255;28;1307;-63
2023/03/01 00:05:43;;;;;;;11.97;8.80;;;;;;;-2.97;100.00;102161.97;687773;28;1457;-63
2023/03/01 00:06:05;;;;;;;12.50;9.00;;;;;;;-2.98;100.00;102162.72;684578;28;2176;-63
2023/03/01 00:06:27;;;;;;;12.45;8.55;;;;;;;-2.99;100.00;102163.50;687301;28;1267;-63
2023/03/01 00:06:47;;;;;;;11.65;8.63;;;;;;;-3.01;100.00;102165.06;687029;28;4442;-63
2023/03/01 00:07:08;;;;;;;12.47;8.80;;;;;;;-3.01;100.00;102163.41;687621;28;1172;-63
2023/03/01 00:07:28;;;;;;;11.57;8.68;;;;;;;-2.98;100.00;102160.19;687461;28;1322;-63
2023/03/01 00:07:52;;;;;;;11.67;9.00;;;;;;;-3.00;100.00;102165.19;687737;28;1299;-63
2023/03/01 00:08:13;;;;;;;12.63;9.25;;;;;;;-3.01;100.00;102165.94;686712;28;1922;-63
2023/03/01 00:08:34;;;;;;;12.63;9.07;;;;;;;-3.01;100.00;102159.94;687955;28;1140;-63
2023/03/01 00:08:55;;;;;;;11.32;8.70;;;;;;;-3.01;100.00;102162.50;687295;28;1354;-63
2023/03/01 00:09:16;;;;;;;11.80;8.70;;;;;;;-3.00;100.00;102160.06;687107;28;1370;-63
2023/03/01 00:09:37;;;;;;;12.18;8.82;;;;;;;-3.02;100.00;102164.16;686971;28;4413;-63
2023/03/01 00:09:57;;;;;;;12.30;8.98;;;;;;;-3.02;100.00;102163.28;687703;28;1552;-63
2023/03/01 00:10:18;;;;;;;12.87;9.20;;;;;;;-3.05;100.00;102163.06;687709;28;1358;-63
2023/03/01 00:10:38;;;;;;;11.27;8.60;;;;;;;-3.08;100.00;102161.16;687089;28;1462;-63
2023/03/01 00:11:04;;;;;;;12.00;8.97;;;;;;;-3.04;100.00;102160.63;687632;28;1394;-63
2023/03/01 00:11:29;;;;;;;13.45;9.38;;;;;;;-3.01;100.00;102159.94;687785;28;1523;-63
2023/03/01 00:11:49;;;;;;;11.07;8.88;;;;;;;-3.00;100.00;102156.63;687072;28;1343;-64
2023/03/01 00:12:10;;;;;;;11.82;9.00;;;;;;;-3.02;100.00;102158.16;687576;28;1222;-63
2023/03/01 00:12:31;;;;;;;12.35;9.43;;;;;;;-3.05;100.00;102160.50;687999;28;1323;-64
2023/03/01 00:12:51;;;;;;;11.40;8.67;;;;;;;-3.05;100.00;102163.06;687582;28;4527;-63
2023/03/01 00:13:12;;;;;;;11.27;8.63;;;;;;;-3.06;100.00;102161.28;686958;28;1086;-63
2023/03/01 00:13:33;;;;;;;11.50;8.70;;;;;;;-3.04;100.00;102159.75;687542;28;1386;-63
2023/03/01 00:13:56;;;;;;;11.70;8.77;;;;;;;-3.06;100.00;102156.16;687678;28;1373;-63
2023/03/01 00:14:17;;;;;;;11.70;8.82;;;;;;;-3.05;100.00;102158.81;687848;28;1326;-63
2023/03/01 00:14:37;;;;;;;13.02;9.30;;;;;;;-3.03;100.00;102158.94;685668;28;1587;-63
2023/03/01 00:14:57;;;;;;;11.70;9.03;;;;;;;-3.05;100.00;102147.72;685614;28;1461;-63
2023/03/01 00:15:18;;;;;;;11.50;8.80;;;;;;;-3.02;100.00;102153.03;686135;28;1417;-63
2023/03/01 00:15:41;;;;;;;12.27;8.57;;;;;;;-3.04;100.00;102160.63;685612;28;4552;-62
2023/03/01 00:16:03;;;;;;;11.02;8.45;;;;;;;-3.03;100.00;102158.94;684821;28;1473;-63
2023/03/01 00:16:30;;;;;;;11.68;8.90;;;;;;;-3.00;100.00;102154.94;685936;28;1358;-62
2023/03/01 00:16:50;;;;;;;11.65;9.00;;;;;;;-3.00;100.00;102160.06;686814;28;1359;-63
2023/03/01 00:17:10;;;;;;;11.13;9.00;;;;;;;-3.02;100.00;102158.16;687515;28;1265;-63
2023/03/01 00:17:31;;;;;;;12.20;8.95;;;;;;;-3.02;100.00;102158.16;687782;28;1307;-63
2023/03/01 00:17:51;;;;;;;11.73;8.50;;;;;;;-3.03;100.00;102157.28;687635;28;1227;-63
2023/03/01 00:18:11;;;;;;;11.50;8.98;;;;;;;-3.02;100.00;102155.59;687831;28;1128;-63
2023/03/01 00:18:32;;;;;;;11.13;8.73;;;;;;;-3.01;100.00;102165.06;688070;28;1426;-63
2023/03/01 00:18:56;;;;;;;11.25;8.50;;;;;;;-3.01;100.00;102160.84;687340;28;4497;-63
2023/03/01 00:19:19;;;;;;;12.40;8.63;;;;;;;-3.02;100.00;102164.16;687555;28;1291;-63
2023/03/01 00:19:39;;;;;;;11.13;8.40;;;;;;;-3.03;100.00;102159.84;684602;28;1513;-63
2023/03/01 00:20:00;;;;;;;10.83;8.33;;;;;;;-3.02;100.00;102158.16;684283;28;3496;-63
2023/03/01 00:20:20;;;;;;;11.93;8.88;;;;;;;-3.02;100.00;102163.28;685039;28;1620;-63
2023/03/01 00:20:40;;;;;;;11.47;8.90;;;;;;;-3.04;100.00;102163.16;684781;28;1363;-62
2023/03/01 00:21:01;;;;;;;11.83;8.90;;;;;;;-3.03;100.00;102161.50;685306;28;1362;-63
2023/03/01 00:21:22;;;;;;;12.13;8.90;;;;;;;-3.07;100.00;102160.41;687683;28;1335;-63
2023/03/01 00:21:43;;;;;;;10.98;8.77;;;;;;;-3.10;100.00;102160.16;689271;28;4437;-63
2023/03/01 00:22:04;;;;;;;13.10;8.90;;;;;;;-3.14;100.00;102153.03;685975;28;1195;-63
2023/03/01 00:22:27;;;;;;;12.67;8.70;;;;;;;-3.13;100.00;102154.81;687776;28;1433;-63
2023/03/01 00:22:48;;;;;;;13.65;9.00;;;;;;;-3.12;100.00;102157.47;685097;28;1311;-63
2023/03/01 00:23:08;;;;;;;11.37;8.80;;;;;;;-3.11;100.00;102150.72;684268;28;1212;-63
2023/03/01 00:23:29;;;;;;;12.40;9.27;;;;;;;-3.12;100.00;102157.47;683803;28;1343;-63
2023/03/01 00:23:50;;;;;;;13.50;9.63;;;;;;;-3.08;100.00;102154.38;685674;28;1220;-63
2023/03/01 00:24:10;;;;;;;12.45;9.02;;;;;;;-3.09;100.00;102152.59;687157;28;1295;-63
2023/03/01 00:24:31;;;;;;;12.63;9.33;;;;;;;-3.08;100.00;102154.38;687698;28;1351;-63
2023/03/01 00:24:51;;;;;;;12.40;9.30;;;;;;;-3.05;100.00;102156.25;687642;28;4688;-63
2023/03/01 00:25:11;;;;;;;12.20;9.07;;;;;;;-3.03;100.00;102148.69;687466;28;1216;-63
2023/03/01 00:25:32;;;;;;;13.80;9.47;;;;;;;-3.00;100.00;102151.50;687754;28;1200;-63
2023/03/01 00:25:52;;;;;;;13.80;9.20;;;;;;;-3.02;100.00;102153.03;687951;28;1307;-63
2023/03/01 00:26:13;;;;;;;12.67;9.43;;;;;;;-3.00;100.00;102152.38;687036;28;1191;-64
2023/03/01 00:26:34;;;;;;;12.27;9.00;;;;;;;-2.99;100.00;102151.63;687779;28;1361;-63
2023/03/01 00:26:55;;;;;;;12.77;8.88;;;;;;;-2.98;100.00;102155.06;687826;28;896;-63
2023/03/01 00:27:16;;;;;;;12.90;9.05;;;;;;;-3.00;100.00;102151.50;687533;28;1370;-63
2023/03/01 00:27:36;;;;;;;13.17;9.23;;;;;;;-2.99;100.00;102155.81;687862;28;1397;-63
2023/03/01 00:27:56;;;;;;;11.25;8.70;;;;;;;-2.99;100.00;102148.16;686701;28;4500;-64
2023/03/01 00:28:17;;;;;;;12.27;9.33;;;;;;;-2.99;100.00;102153.25;684102;28;1906;-63
2023/03/01 00:28:37;;;;;;;13.00;9.70;;;;;;;-3.00;100.00;102146.38;683843;28;1592;-63
2023/03/01 00:28:59;;;;;;;13.40;9.83;;;;;;;-2.95;100.00;102155.28;681649;28;1418;-63
2023/03/01 00:29:19;;;;;;;13.57;9.63;;;;;;;-2.94;100.00;102159.63;681999;28;1340;-64
2023/03/01 00:29:39;;;;;;;13.30;9.30;;;;;;;-2.96;100.00;102154.41;679536;29;1615;-63
2023/03/01 00:29:59;;;;;;;12.93;9.27;;;;;;;-2.96;100.00;102153.53;679975;29;1477;-63
2023/03/01 00:30:20;;;;;;;11.90;9.02;;;;;;;-2.96;100.00;102150.97;679652;29;1656;-64
2023/03/01 00:30:41;;;;;;;12.80;9.00;;;;;;;-2.93;100.00;102153.75;679244;29;4310;-63
2023/03/01 00:31:10;;;;;;;11.93;8.75;;;;;;;-2.92;100.00;102155.53;681730;29;1347;-63
2023/03/01 00:31:32;;;;;;;11.52;9.02;;;;;;;-2.95;100.00;102151.06;683248;28;1386;-63
2023/03/01 00:31:53;;;;;;;11.68;9.25;;;;;;;-2.97;100.00;102156.84;686677;28;1330;-64
2023/03/01 00:32:13;;;;;;;12.70;9.23;;;;;;;-2.97;100.00;102152.59;688738;28;1270;-63
2023/03/01 00:32:33;;;;;;;13.32;9.25;;;;;;;-2.97;100.00;102156.84;690148;28;1472;-63
2023/03/01 00:32:54;;;;;;;13.27;9.53;;;;;;;-2.96;100.00;102153.53;688413;28;1236;-64
2023/03/01 00:33:14;;;;;;;11.40;8.98;;;;;;;-2.96;100.00;102163.75;686719;28;1418;-63
2023/03/01 00:33:35;;;;;;;12.90;9.50;;;;;;;-2.97;100.00;102155.16;686351;28;1354;-64
2023/03/01 00:33:59;;;;;;;11.77;9.15;;;;;;;-2.98;100.00;102155.06;684667;28;4272;-64
2023/03/01 00:34:19;;;;;;;11.82;9.32;;;;;;;-3.03;100.00;102156.38;686945;28;1497;-64
2023/03/01 00:34:39;;;;;;;12.70;9.00;;;;;;;-3.03;100.00;102157.28;687434;28;1248;-64
2023/03/01 00:35:00;;;;;;;12.75;8.77;;;;;;;-3.03;100.00;102161.50;685222;28;1347;-63
2023/03/01 00:35:22;;;;;;;11.50;8.80;;;;;;;-3.04;100.00;102154.63;684808;28;1470;-63
2023/03/01 00:35:44;;;;;;;12.25;9.60;;;;;;;-3.02;100.00;102158.16;683958;28;1787;-64
2023/03/01 00:36:05;;;;;;;12.32;9.00;;;;;;;-3.06;100.00;102148.47;683295;28;1196;-63
2023/03/01 00:36:31;;;;;;;11.90;8.82;;;;;;;-3.06;100.00;102148.47;682408;29;2010;-63
2023/03/01 00:36:51;;;;;;;11.65;8.93;;;;;;;-3.05;100.00;102152.81;683253;28;4520;-63
2023/03/01 00:37:12;;;;;;;12.03;8.80;;;;;;;-3.03;100.00;102151.25;682682;28;1173;-63
2023/03/01 00:37:33;;;;;;;11.98;9.00;;;;;;;-3.04;100.00;102150.38;681040;29;1474;-64
2023/03/01 00:37:57;;;;;;;11.95;8.73;;;;;;;-3.04;100.00;102149.50;679343;29;1311;-64
2023/03/01 00:38:18;;;;;;;11.65;8.68;;;;;;;-3.07;100.00;102150.16;678314;29;1394;-63
2023/03/01 00:38:39;;;;;;;12.48;9.18;;;;;;;-3.09;100.00;102146.56;679451;29;1379;-64
2023/03/01 00:39:00;;;;;;;11.68;9.05;;;;;;;-3.13;100.00;102155.72;680152;28;1479;-64
2023/03/01 00:39:21;;;;;;;12.32;8.80;;;;;;;-3.16;100.00;102154.59;683043;28;1614;-64
2023/03/01 00:39:41;;;;;;;12.57;8.93;;;;;;;-3.18;100.00;102145.91;682534;28;4731;-64
2023/03/01 00:40:05;;;;;;;11.93;9.18;;;;;;;-3.20;100.00;102150.88;682579;28;1687;-63
2023/03/01 00:40:30;;;;;;;11.68;9.10;;;;;;;-3.18;100.00;102151.91;681851;28;1912;-64
2023/03/01 00:40:50;;;;;;;12.45;9.15;;;;;;;-3.13;100.00;102149.69;683468;28;2147;-63
2023/03/01 00:41:16;;;;;;;12.83;8.93;;;;;;;-3.14;100.00;102153.91;680992;28;1252;-64
2023/03/01 00:41:36;;;;;;;12.07;8.95;;;;;;;-3.13;100.00;102155.72;682942;28;1514;-64
2023/03/01 00:41:57;;;;;;;12.90;9.33;;;;;;;-3.11;100.00;102150.72;685004;28;1360;-63
2023/03/01 00:42:17;;;;;;;12.70;9.37;;;;;;;-3.14;100.00;102151.38;685052;28;1406;-63
2023/03/01 00:42:38;;;;;;;12.10;9.27;;;;;;;-3.12;100.00;102157.47;682611;28;4350;-63
2023/03/01 00:42:58;;;;;;;12.88;9.02;;;;;;;-3.09;100.00;102150.03;682548;28;1402;-63
2023/03/01 00:43:19;;;;;;;13.17;8.87;;;;;;;-3.10;100.00;102150.81;685088;28;1572;-64
2023/03/01 00:43:41;;;;;;;12.27;8.80;;;;;;;-3.09;100.00;102147.50;684748;28;1568;-64
2023/03/01 00:44:02;;;;;;;12.93;9.10;;;;;;;-3.05;100.00;102147.72;684839;28;1436;-64
2023/03/01 00:44:22;;;;;;;11.57;8.87;;;;;;;-3.04;100.00;102139.25;684965;28;1710;-64
2023/03/01 00:44:43;;;;;;;11.63;9.07;;;;;;;-3.04;100.00;102144.38;684998;28;1286;-64
2023/03/01 00:45:04;;;;;;;11.65;8.88;;;;;;;-3.04;100.00;102144.38;686896;28;1156;-64
2023/03/01 00:45:26;;;;;;;11.57;8.77;;;;;;;-3.04;100.00;102145.25;687462;28;1366;-64
2023/03/01 00:45:47;;;;;;;11.40;8.98;;;;;;;-3.04;100.00;102144.38;687128;28;4717;-63
2023/03/01 00:46:11;;;;;;;11.30;8.97;;;;;;;-3.06;100.00;102151.03;687353;28;1211;-63
2023/03/01 00:46:31;;;;;;;12.38;9.15;;;;;;;-3.07;100.00;102139.94;685129;28;1280;-64
2023/03/01 00:46:51;;;;;;;12.13;9.00;;;;;;;-3.08;100.00;102148.38;685834;28;1350;-64
2023/03/01 00:47:13;;;;;;;11.50;9.03;;;;;;;-3.08;100.00;102140.69;685528;28;1192;-64
2023/03/01 00:47:33;;;;;;;12.70;9.40;;;;;;;-3.08;100.00;102139.00;686841;28;1391;-64
2023/03/01 00:47:54;;;;;;;11.75;9.10;;;;;;;-3.09;100.00;102134.69;685208;28;1455;-63
2023/03/01 00:48:14;;;;;;;11.03;8.57;;;;;;;-3.09;100.00;102136.34;685663;28;1984;-64
2023/03/01 00:48:35;;;;;;;14.00;8.90;;;;;;;-3.06;100.00;102136.56;687909;28;1417;-64
2023/03/01 00:48:56;;;;;;;12.98;9.25;;;;;;;-3.07;100.00;102139.94;687231;28;4329;-64
2023/03/01 00:49:16;;;;;;;12.27;9.07;;;;;;;-3.08;100.00;102136.44;687737;28;1441;-64
2023/03/01 00:49:36;;;;;;;12.13;8.90;;;;;;;-3.10;100.00;102135.47;687847;28;1235;-63
2023/03/01 00:49:57;;;;;;;11.70;8.93;;;;;;;-3.11;100.00;102132.78;687651;28;1223;-64
2023/03/01 00:50:18;;;;;;;12.47;9.00;;;;;;;-3.10;100.00;102135.47;688077;28;1466;-64
2023/03/01 00:50:38;;;;;;;11.43;8.60;;;;;;;-3.09;100.00;102137.25;687925;28;1517;-65
2023/03/01 00:51:13;;;;;;;11.93;8.93;;;;;;;-3.13;100.00;102132.69;687184;28;1264;-64
2023/03/01 00:51:33;;;;;;;11.27;8.88;;;;;;;-3.14;100.00;102132.56;686631;28;1215;-64
2023/03/01 00:51:53;;;;;;;11.47;8.90;;;;;;;-3.16;100.00;102135.00;686547;28;4288;-64
2023/03/01 00:52:14;;;;;;;11.70;8.57;;;;;;;-3.16;100.00;102137.56;687305;28;1354;-64
2023/03/01 00:52:34;;;;;;;12.90;9.37;;;;;;;-3.19;100.00;102134.78;687896;28;1362;-64
2023/03/01 00:52:55;;;;;;;12.90;9.70;;;;;;;-3.18;100.00;102135.69;686567;28;2019;-64
2023/03/01 00:53:18;;;;;;;11.48;8.90;;;;;;;-3.16;100.00;102141.78;686763;28;1338;-64
2023/03/01 00:53:39;;;;;;;13.15;9.00;;;;;;;-3.19;100.00;102134.78;687899;28;1496;-64
2023/03/01 00:54:02;;;;;;;12.70;8.80;;;;;;;-3.17;100.00;102135.78;687040;28;1308;-64
2023/03/01 00:54:22;;;;;;;11.85;9.05;;;;;;;-3.15;100.00;102135.91;684816;28;1541;-64
2023/03/01 00:54:43;;;;;;;12.53;9.47;;;;;;;-3.14;100.00;102141.13;679908;29;4402;-63
2023/03/01 00:55:04;;;;;;;11.50;9.27;;;;;;;-3.15;100.00;102136.78;679716;29;1632;-64
2023/03/01 00:55:25;;;;;;;11.75;9.02;;;;;;;-3.15;100.00;102138.47;678904;29;1388;-64
2023/03/01 00:55:45;;;;;;;12.27;8.95;;;;;;;-3.15;100.00;102136.78;680203;29;1426;-64
2023/03/01 00:56:07;;;;;;;11.93;8.93;;;;;;;-3.17;100.00;102133.22;680811;28;1212;-64
2023/03/01 00:56:29;;;;;;;11.63;8.75;;;;;;;-3.18;100.00;102139.13;682692;28;1363;-64
2023/03/01 00:56:49;;;;;;;12.32;8.88;;;;;;;-3.19;100.00;102134.78;683086;28;1360;-64
2023/03/01 00:57:10;;;;;;;12.70;9.20;;;;;;;-3.22;100.00;102137.09;682989;28;1276;-64
2023/03/01 00:57:31;;;;;;;11.83;8.90;;;;;;;-3.22;100.00;102132.00;685201;28;1389;-64
2023/03/01 00:57:51;;;;;;;11.90;8.50;;;;;;;-3.20;100.00;102142.34;682336;28;4570;-63
2023/03/01 00:58:12;;;;;;;12.05;8.45;;;;;;;-3.22;100.00;102137.09;681991;28;1090;-64
2023/03/01 00:58:32;;;;;;;12.03;8.67;;;;;;;-3.21;100.00;102138.00;679692;29;1444;-64
2023/03/01 00:58:53;;;;;;;11.95;9.13;;;;;;;-3.24;100.00;102130.97;681876;29;956;-64
2023/03/01 00:59:13;;;;;;;12.45;9.05;;;;;;;-3.25;100.00;102135.22;681271;29;1229;-64
2023/03/01 00:59:34;;;;;;;11.30;8.77;;;;;;;-3.26;100.00;102132.53;681897;28;1419;-64
2023/03/01 00:59:55;;;;;;;12.15;9.20;;;;;;;-3.29;100.00;102137.44;681922;28;1465;-64
2023/03/01 01:00:15;;;;;;;12.48;9.13;;;;;;;-3.33;100.00;102140.53;682428;28;1295;-64
2023/03/01 01:00:36;;;;;;;11.02;8.88;;;;;;;-3.33;100.00;102137.97;684545;28;1430;-65
2023/03/01 01:00:57;;;;;;;11.33;8.97;;;;;;;-3.33;100.00;102137.97;682976;28;4399;-64
2023/03/01 01:01:21;;;;;;;11.23;9.00;;;;;;;-3.28;100.00;102131.50;683022;28;1608;-64
2023/03/01 01:01:41;;;;;;;11.88;8.77;;;;;;;-3.30;100.00;102131.41;682104;28;1466;-64
2023/03/01 01:02:02;;;;;;;11.02;8.63;;;;;;;-3.30;100.00;102135.63;684318;28;1620;-64
2023/03/01 01:02:22;;;;;;;10.97;8.80;;;;;;;-3.33;100.00;102133.75;685225;28;1632;-64
2023/03/01 01:02:43;;;;;;;10.95;8.65;;;;;;;-3.31;100.00;102131.28;683002;28;1556;-64
2023/03/01 01:03:04;;;;;;;11.48;8.80;;;;;;;-3.28;100.00;102128.97;682437;28;1731;-64
2023/03/01 01:03:24;;;;;;;11.23;8.60;;;;;;;-3.22;100.00;102133.66;684665;28;1024;-64
2023/03/01 01:03:51;;;;;;;11.30;8.65;;;;;;;-3.24;100.00;102128.41;684125;28;4435;-64
2023/03/01 01:04:13;;;;;;;12.55;9.18;;;;;;;-3.26;100.00;102122.31;684349;28;1121;-64
2023/03/01 01:04:33;;;;;;;12.85;9.25;;;;;;;-3.27;100.00;102125.63;686278;28;1406;-64
2023/03/01 01:04:54;;;;;;;12.17;9.20;;;;;;;-3.22;100.00;102129.44;687484;28;1319;-65
2023/03/01 01:05:14;;;;;;;12.98;9.23;;;;;;;-3.21;100.00;102128.66;686140;28;1343;-64
2023/03/01 01:05:35;;;;;;;12.68;9.05;;;;;;;-3.22;100.00;102124.31;684721;28;1374;-64
2023/03/01 01:05:55;;;;;;;12.07;9.27;;;;;;;-3.24;100.00;102130.97;681956;28;1335;-64
2023/03/01 01:06:22;;;;;;;11.30;8.80;;;;;;;-3.27;100.00;102126.53;682527;28;1379;-65
2023/03/01 01:06:45;;;;;;;12.57;9.07;;;;;;;-3.26;100.00;102128.31;682539;28;4396;-63
2023/03/01 01:07:05;;;;;;;11.93;8.70;;;;;;;-3.26;100.00;102122.31;682208;28;1418;-64
2023/03/01 01:07:26;;;;;;;11.50;8.77;;;;;;;-3.27;100.00;102126.53;681714;28;1316;-64
2023/03/01 01:07:47;;;;;;;12.15;9.10;;;;;;;-3.29;100.00;102127.19;683503;28;1406;-64
2023/03/01 01:08:08;;;;;;;12.70;9.00;;;;;;;-3.32;100.00;102122.75;681914;28;1973;-64
2023/03/01 01:08:28;;;;;;;12.75;8.90;;;;;;;-3.33;100.00;102120.06;682409;28;1280;-64
2023/03/01 01:08:49;;;;;;;13.23;9.00;;;;;;;-3.34;100.00;102123.41;679685;29;1324;-64
2023/03/01 01:09:16;;;;;;;12.18;8.68;;;;;;;-3.35;100.00;102122.53;679295;29;1261;-64
2023/03/01 01:09:37;;;;;;;13.18;9.50;;;;;;;-3.35;100.00;102126.72;681613;28;4391;-63
2023/03/01 01:09:58;;;;;;;13.15;9.27;;;;;;;-3.36;100.00;102127.53;681415;28;1628;-65
2023/03/01 01:10:18;;;;;;;14.00;9.40;;;;;;;-3.36;100.00;102132.63;682300;28;1480;-64
2023/03/01 01:10:38;;;;;;;13.23;8.95;;;;;;;-3.36;100.00;102127.53;680247;29;1379;-64
2023/03/01 01:10:59;;;;;;;12.87;9.00;;;;;;;-3.35;100.00;102121.59;683343;28;1510;-64
2023/03/01 01:11:20;;;;;;;12.30;8.83;;;;;;;-3.34;100.00;102123.41;683969;28;1508;-64
2023/03/01 01:11:41;;;;;;;12.02;8.95;;;;;;;-3.31;100.00;102128.72;684464;28;1180;-64
2023/03/01 01:12:01;;;;;;;12.23;8.83;;;;;;;-3.32;100.00;102125.31;685345;28;1582;-64
2023/03/01 01:12:22;;;;;;;12.95;8.80;;;;;;;-3.31;100.00;102123.63;687669;28;1795;-64
2023/03/01 01:12:44;;;;;;;11.97;8.90;;;;;;;-3.32;100.00;102121.88;689457;28;4406;-63
2023/03/01 01:13:04;;;;;;;12.35;9.07;;;;;;;-3.36;100.00;102125.84;689559;28;1180;-64
2023/03/01 01:13:25;;;;;;;11.90;8.90;;;;;;;-3.35;100.00;102121.59;687072;28;1374;-64
2023/03/01 01:13:46;;;;;;;12.57;9.23;;;;;;;-3.35;100.00;102126.72;685615;28;1180;-64
2023/03/01 01:14:07;;;;;;;13.07;9.18;;;;;;;-3.38;100.00;102127.38;684118;28;1329;-64
2023/03/01 01:14:27;;;;;;;11.77;9.10;;;;;;;-3.37;100.00;102120.63;682437;28;1399;-65
2023/03/01 01:14:48;;;;;;;12.45;9.00;;;;;;;-3.35;100.00;102119.97;682333;29;1445;-64
2023/03/01 01:15:12;;;;;;;12.32;8.98;;;;;;;-3.36;100.00;102124.97;681131;28;1182;-65
2023/03/01 01:15:35;;;;;;;12.77;9.38;;;;;;;-3.38;100.00;102121.38;684948;28;1387;-64
2023/03/01 01:16:01;;;;;;;13.90;9.13;;;;;;;-3.42;100.00;102121.16;684603;28;4355;-65
2023/03/01 01:16:23;;;;;;;11.82;8.98;;;;;;;-3.44;100.00;102116.69;682084;28;3374;-64
2023/03/01 01:16:44;;;;;;;12.07;8.80;;;;;;;-3.43;100.00;102119.38;684663;28;1343;-64
2023/03/01 01:17:05;;;;;;;11.45;8.68;;;;;;;-3.42;100.00;102121.16;683306;28;1036;-64
2023/03/01 01:17:25;;;;;;;11.27;8.50;;;;;;;-3.42;100.00;102120.25;682292;28;1471;-65
2023/03/01 01:17:45;;;;;;;11.87;8.50;;;;;;;-3.45;100.00;102115.81;682706;28;951;-64
2023/03/01 01:18:06;;;;;;;11.97;8.83;;;;;;;-3.45;100.00;102115.81;681407;28;1573;-64
2023/03/01 01:18:26;;;;;;;11.87;8.93;;;;;;;-3.45;100.00;102113.28;687233;28;1342;-64
2023/03/01 01:18:47;;;;;;;11.88;8.30;;;;;;;-3.47;100.00;102117.34;682641;28;4326;-64
2023/03/01 01:19:10;;;;;;;12.10;8.93;;;;;;;-3.46;100.00;102118.25;681779;28;1844;-64
2023/03/01 01:19:30;;;;;;;12.48;9.43;;;;;;;-3.46;100.00;102119.16;682360;29;1403;-64
2023/03/01 01:19:51;;;;;;;12.23;9.05;;;;;;;-3.46;100.00;102115.69;682754;28;1402;-64
2023/03/01 01:20:12;;;;;;;11.60;8.90;;;;;;;-3.46;100.00;102113.13;684484;28;1255;-64
2023/03/01 01:20:32;;;;;;;10.90;8.75;;;;;;;-3.47;100.00;102113.91;685265;28;1227;-65
2023/03/01 01:20:53;;;;;;;14.13;9.30;;;;;;;-3.47;100.00;102114.81;688090;28;1342;-64
2023/03/01 01:21:21;;;;;;;11.75;9.13;;;;;;;-3.43;100.00;102114.25;690121;28;1273;-64
2023/03/01 01:21:42;;;;;;;12.06;9.08;;;;;;;-3.42;100.00;102112.59;686265;28;4501;-65
2023/03/01 01:22:03;;;;;;;10.93;8.80;;;;;;;-3.42;100.00;102107.47;686285;28;1437;-65
2023/03/01 01:22:24;;;;;;;11.70;8.83;;;;;;;-3.43;100.00;102103.16;686469;28;1425;-64
2023/03/01 01:22:44;;;;;;;12.38;9.07;;;;;;;-3.43;100.00;102108.25;684872;28;1468;-64
2023/03/01 01:23:05;;;;;;;12.10;9.27;;;;;;;-3.46;100.00;102105.44;684694;28;1252;-64
2023/03/01 01:23:26;;;;;;;11.93;9.07;;;;;;;-3.46;100.00;102105.44;682726;28;1350;-65
2023/03/01 01:23:47;;;;;;;12.43;9.10;;;;;;;-3.44;100.00;102102.25;684718;28;1278;-66
2023/03/01 01:24:07;;;;;;;13.45;8.93;;;;;;;-3.44;100.00;102102.25;683553;28;1224;-64
2023/03/01 01:24:27;;;;;;;13.18;8.88;;;;;;;-3.45;100.00;102103.03;684547;28;1371;-64
2023/03/01 01:24:48;;;;;;;11.97;8.40;;;;;;;-3.49;100.00;102103.59;683873;28;4893;-64
2023/03/01 01:25:09;;;;;;;12.20;8.97;;;;;;;-3.50;100.00;102106.91;681850;28;999;-64
2023/03/01 01:25:29;;;;;;;11.97;9.10;;;;;;;-3.48;100.00;102101.91;684997;28;1204;-65
2023/03/01 01:25:49;;;;;;;11.70;9.05;;;;;;;-3.46;100.00;102100.34;684893;28;1319;-65
2023/03/01 01:26:13;;;;;;;12.07;8.80;;;;;;;-3.45;100.00;102104.69;684542;28;1219;-64
2023/03/01 01:26:36;;;;;;;12.27;9.00;;;;;;;-3.44;100.00;102099.69;684562;28;1346;-64
2023/03/01 01:26:57;;;;;;;12.48;9.30;;;;;;;-3.45;100.00;102097.94;681893;28;1493;-64
2023/03/01 01:27:17;;;;;;;12.45;9.40;;;;;;;-3.44;100.00;102106.47;682122;29;1410;-64
2023/03/01 01:27:37;;;;;;;13.50;9.20;;;;;;;-3.46;100.00;102100.34;681970;28;4385;-64
2023/03/01 01:27:58;;;;;;;12.35;8.73;;;;;;;-3.49;100.00;102103.59;682709;28;1212;-64
2023/03/01 01:28:18;;;;;;;11.97;9.07;;;;;;;-3.49;100.00;102098.47;682881;28;1976;-64
2023/03/01 01:28:40;;;;;;;14.02;9.20;;;;;;;-3.47;100.00;102096.91;681524;28;1426;-64
2023/03/01 01:29:02;;;;;;;12.33;9.13;;;;;;;-3.47;100.00;102096.91;682599;28;1403;-65
2023/03/01 01:29:22;;;;;;;11.93;8.90;;;;;;;-3.46;100.00;102101.25;682521;28;1601;-65
2023/03/01 01:29:43;;;;;;;12.10;8.73;;;;;;;-3.45;100.00;102097.00;682437;28;1680;-64
2023/03/01 01:30:04;;;;;;;12.37;8.80;;;;;;;-3.44;100.00;102096.25;683540;28;1517;-64
2023/03/01 01:30:24;;;;;;;11.98;8.93;;;;;;;-3.44;100.00;102104.78;686458;28;1570;-65
2023/03/01 01:30:45;;;;;;;12.00;8.82;;;;;;;-3.45;100.00;102092.81;683911;28;4625;-64
2023/03/01 01:31:06;;;;;;;13.00;9.10;;;;;;;-3.44;100.00;102099.69;685868;28;1179;-65
2023/03/01 01:31:28;;;;;;;11.57;8.73;;;;;;;-3.45;100.00;102100.47;685620;28;1362;-64
2023/03/01 01:31:48;;;;;;;12.40;8.93;;;;;;;-3.46;100.00;102097.78;684951;28;1362;-64
2023/03/01 01:32:08;;;;;;;11.90;8.90;;;;;;;-3.47;100.00;102101.13;685820;28;1468;-64
2023/03/01 01:32:29;;;;;;;11.63;8.68;;;;;;;-3.51;100.00;102099.13;686575;28;1405;-65
2023/03/01 01:32:49;;;;;;;12.07;8.57;;;;;;;-3.49;100.00;102093.34;689813;28;1263;-64
2023/03/01 01:33:09;;;;;;;13.00;8.90;;;;;;;-3.49;100.00;102095.91;687346;28;1164;-64
2023/03/01 01:33:30;;;;;;;12.23;8.80;;;;;;;-3.52;100.00;102097.34;684836;28;1410;-64
2023/03/01 01:33:51;;;;;;;11.60;8.57;;;;;;;-3.53;100.00;102098.09;684170;28;4292;-64
2023/03/01 01:34:18;;;;;;;11.23;8.48;;;;;;;-3.52;100.00;102099.91;681729;28;1224;-64
2023/03/01 01:34:38;;;;;;;11.35;8.85;;;;;;;-3.57;100.00;102089.34;679433;29;1432;-64
2023/03/01 01:34:58;;;;;;;13.10;9.47;;;;;;;-3.55;100.00;102092.88;679938;29;1407;-64
2023/03/01 01:35:19;;;;;;;12.83;9.53;;;;;;;-3.58;100.00;102092.66;682441;28;1380;-64
2023/03/01 01:35:39;;;;;;;13.98;9.73;;;;;;;-3.60;100.00;102089.06;684048;28;1331;-64
2023/03/01 01:35:59;;;;;;;12.23;8.77;;;;;;;-3.59;100.00;102093.41;684977;28;1461;-64
2023/03/01 01:36:20;;;;;;;11.68;8.57;;;;;;;-3.60;100.00;102089.06;686365;28;1355;-64
2023/03/01 01:36:41;;;;;;;11.80;8.73;;;;;;;-3.64;100.00;102090.53;687056;28;4574;-64
2023/03/01 01:37:02;;;;;;;13.27;9.10;;;;;;;-3.66;100.00;102086.06;686154;28;1291;-64
2023/03/01 01:37:23;;;;;;;11.80;8.98;;;;;;;-3.67;100.00;102086.84;687552;28;1658;-64
2023/03/01 01:37:43;;;;;;;12.30;8.83;;;;;;;-3.69;100.00;102088.41;687559;28;1587;-64
2023/03/01 01:38:03;;;;;;;11.90;8.83;;;;;;;-3.64;100.00;102087.97;684738;28;1568;-64
2023/03/01 01:38:24;;;;;;;12.37;9.13;;;;;;;-3.66;100.00;102084.38;687580;28;1398;-64